Time;durP1;ratioP1;P1;durP2;ratioP2;P2;SDS_P1;SDS_P2;PMS_P1;PMS_P2;Temp;Humidity;BMP_temperature;BMP_pressure;BME280_temperature;BME280_humidity;BME280_pressure;Samples;Min_cycle;Max_cycle;Signal;HPM_P1;HPM_P2
2022/05/18 00:00:52;;;;;;;59.63;42.95;;;;;;;11.43;41.95;100296.12;1759670;80;21445;-80
2022/05/18 00:03:23;;;;;;;68.67;48.10;;;;;;;11.40;42.24;100292.66;1764867;80;21010;-80
2022/05/18 00:05:50;;;;;;;71.37;49.95;;;;;;;11.38;42.56;100285.96;1760471;80;21038;-79
2022/05/18 00:08:17;;;;;;;63.28;47.73;;;;;;;11.36;42.79;100290.25;1760627;80;21089;-80
2022/05/18 00:10:48;;;;;;;64.85;44.93;;;;;;;11.35;42.96;100294.01;1761657;80;21030;-81
2022/05/18 00:13:15;;;;;;;57.38;40.88;;;;;;;11.35;43.26;100297.19;1765392;80;22133;-78
2022/05/18 00:15:43;;;;;;;51.00;38.15;;;;;;;11.33;43.39;100296.14;1764415;80;21005;-78
2022/05/18 00:18:11;;;;;;;44.95;33.75;;;;;;;11.32;43.50;100299.89;1751195;80;21168;-78
2022/05/18 00:20:38;;;;;;;45.95;33.92;;;;;;;11.31;43.54;100304.16;1766235;80;20964;-78
2022/05/18 00:23:05;;;;;;;44.77;31.15;;;;;;;11.30;43.52;100304.69;1765766;80;21014;-78
2022/05/18 00:25:37;;;;;;;52.48;39.25;;;;;;;11.28;43.75;100301.47;1767170;80;21886;-79
2022/05/18 00:28:04;;;;;;;92.80;67.67;;;;;;;11.24;44.25;100305.22;1762205;80;21006;-78
2022/05/18 00:30:32;;;;;;;114.77;82.45;;;;;;;11.20;44.68;100306.03;1766452;80;20943;-78
2022/05/18 00:33:03;;;;;;;113.50;79.32;;;;;;;11.19;44.74;100309.24;1764056;80;21034;-78
2022/05/18 00:35:30;;;;;;;112.25;79.60;;;;;;;11.16;45.01;100307.64;1764686;80;20947;-79
2022/05/18 00:37:58;;;;;;;114.05;79.72;;;;;;;11.12;45.10;100307.87;1755168;80;21095;-81
2022/05/18 00:40:25;;;;;;;107.47;76.70;;;;;;;11.08;45.21;100312.16;1751692;80;20983;-80
2022/05/18 00:42:52;;;;;;;110.10;73.02;;;;;;;11.00;45.32;100316.17;1762108;80;21026;-79
2022/05/18 00:45:20;;;;;;;103.70;69.50;;;;;;;10.92;45.76;100322.82;1762804;80;21042;-80
2022/05/18 00:47:47;;;;;;;96.67;66.90;;;;;;;10.89;45.81;100320.70;1765685;80;20939;-79
2022/05/18 00:50:27;;;;;;;87.90;59.88;;;;;;;10.86;46.02;100327.08;1764106;80;21157;-78
2022/05/18 00:53:16;;;;;;;76.85;52.50;;;;;;;10.80;45.83;100327.63;1757697;80;21006;-80
2022/05/18 00:55:47;;;;;;;64.03;44.63;;;;;;;10.74;45.93;100332.14;1765958;80;21017;-79
2022/05/18 00:58:43;;;;;;;54.80;37.33;;;;;;;10.68;46.02;100325.18;1766046;80;26927;-82
2022/05/18 01:01:10;;;;;;;50.73;33.90;;;;;;;10.63;46.08;100333.70;1756505;80;20986;-80
2022/05/18 01:03:43;;;;;;;45.65;31.05;;;;;;;10.56;46.33;100330.77;1766197;79;21236;-78
2022/05/18 01:06:25;;;;;;;38.90;25.23;;;;;;;10.54;46.19;100336.89;1767395;80;21073;-78
2022/05/18 01:09:09;;;;;;;30.08;19.85;;;;;;;10.52;46.23;100339.55;1744065;80;21663;-79
2022/05/18 01:11:39;;;;;;;23.18;15.75;;;;;;;10.50;46.32;100327.02;1761032;81;21058;-78
2022/05/18 01:14:17;;;;;;;23.10;14.35;;;;;;;10.48;46.35;100329.92;1764032;80;21053;-79
2022/05/18 01:16:46;;;;;;;15.18;9.40;;;;;;;10.47;46.38;100329.66;1754222;80;21562;-79
2022/05/18 01:19:28;;;;;;;15.03;8.18;;;;;;;10.47;46.37;100330.20;1761099;80;21018;-78
2022/05/18 01:22:42;;;;;;;15.05;7.12;;;;;;;10.46;46.21;100329.91;1735946;82;21476;-80
2022/05/18 01:25:44;;;;;;;12.45;6.70;;;;;;;10.44;46.43;100339.53;1688196;82;21030;-78
2022/05/18 01:28:11;;;;;;;18.32;10.98;;;;;;;10.42;46.61;100338.17;1761807;80;20991;-80
2022/05/18 01:30:45;;;;;;;20.60;12.55;;;;;;;10.43;46.72;100334.44;1748317;80;21248;-79
2022/05/18 01:33:13;;;;;;;27.58;16.90;;;;;;;10.41;46.85;100347.27;1764946;80;21084;-80
2022/05/18 01:35:41;;;;;;;28.47;18.48;;;;;;;10.38;46.97;100347.24;1758239;80;21062;-79
2022/05/18 01:38:12;;;;;;;28.05;18.48;;;;;;;10.36;47.13;100345.36;1763196;80;21044;-79
2022/05/18 01:40:59;;;;;;;29.57;16.90;;;;;;;10.33;47.32;100347.20;1764079;79;21061;-81
2022/05/18 01:43:34;;;;;;;22.90;13.95;;;;;;;10.29;47.55;100346.92;1758273;80;21619;-79
2022/05/18 01:46:07;;;;;;;18.75;10.98;;;;;;;10.25;47.91;100353.02;1751429;81;21015;-78
2022/05/18 01:48:41;;;;;;;14.13;9.25;;;;;;;10.18;48.46;100349.79;1762944;80;21081;-81
2022/05/18 01:51:08;;;;;;;12.55;8.28;;;;;;;10.14;48.89;100350.84;1766831;80;21062;-76
2022/05/18 01:53:36;;;;;;;10.80;5.75;;;;;;;10.10;49.35;100355.89;1758749;80;20975;-81
2022/05/18 01:56:04;;;;;;;9.38;4.47;;;;;;;10.06;49.92;100360.66;1766205;80;21142;-79
2022/05/18 01:58:33;;;;;;;7.55;4.15;;;;;;;10.01;50.08;100354.77;1764895;80;20943;-79
2022/05/18 02:01:03;;;;;;;7.75;3.90;;;;;;;9.97;50.43;100359.02;1753580;80;21010;-79
2022/05/18 02:03:31;;;;;;;8.30;4.03;;;;;;;9.96;50.54;100361.92;1761164;80;21149;-81
2022/05/18 02:05:59;;;;;;;6.35;3.80;;;;;;;9.93;50.51;100361.91;1764727;80;21525;-80
2022/05/18 02:08:27;;;;;;;8.75;4.15;;;;;;;9.88;50.58;100373.09;1759079;80;21153;-81
2022/05/18 02:10:55;;;;;;;7.47;4.15;;;;;;;9.85;50.75;100371.73;1767295;80;21141;-78
2022/05/18 02:13:24;;;;;;;7.00;4.42;;;;;;;9.80;50.90;100371.69;1763628;80;21050;-79
2022/05/18 02:15:52;;;;;;;9.05;5.12;;;;;;;9.74;51.00;100371.38;1761022;80;21422;-80
2022/05/18 02:18:19;;;;;;;10.35;5.65;;;;;;;9.67;51.15;100371.59;1765269;80;20975;-77
2022/05/18 02:20:48;;;;;;;10.70;6.55;;;;;;;9.63;51.29;100375.30;1764007;80;21126;-78
2022/05/18 02:23:16;;;;;;;14.13;8.23;;;;;;;9.58;51.61;100387.27;1756533;80;21021;-77
2022/05/18 02:25:43;;;;;;;15.55;8.60;;;;;;;9.53;51.67;100376.55;1757584;80;20951;-78
2022/05/18 02:28:12;;;;;;;14.23;8.85;;;;;;;9.49;51.84;100378.12;1761769;80;21077;-77
2022/05/18 02:30:39;;;;;;;15.32;9.18;;;;;;;9.46;52.05;100381.83;1763767;80;20999;-77
2022/05/18 02:33:06;;;;;;;19.52;11.48;;;;;;;9.43;52.25;100390.33;1764704;80;21216;-78
2022/05/18 02:35:36;;;;;;;17.35;11.35;;;;;;;9.37;52.31;100386.27;1759584;80;20991;-78
2022/05/18 02:38:04;;;;;;;21.48;13.28;;;;;;;9.32;52.61;100384.91;1763537;80;21624;-83
2022/05/18 02:40:32;;;;;;;20.92;13.95;;;;;;;9.29;52.84;100401.41;1762733;81;21491;-80
2022/05/18 02:42:58;;;;;;;22.85;13.98;;;;;;;9.26;53.13;100390.45;1746590;80;21034;-79
2022/05/18 02:45:27;;;;;;;21.97;13.60;;;;;;;9.24;53.34;100389.88;1766056;80;21548;-78
2022/05/18 02:47:54;;;;;;;21.68;12.73;;;;;;;9.24;53.50;100401.34;1749857;80;21069;-76
2022/05/18 02:50:21;;;;;;;21.25;12.43;;;;;;;9.22;53.75;100394.15;1761870;80;21153;-79
2022/05/18 02:52:48;;;;;;;21.48;12.90;;;;;;;9.22;53.91;100401.34;1755522;80;20939;-76
2022/05/18 02:58:02;;;;;;;17.45;11.33;;;;;;;9.22;54.46;100402.14;1727712;81;21249;-78
2022/05/18 03:00:32;;;;;;;21.30;12.20;;;;;;;9.24;54.77;100399.21;1758950;80;21066;-79
2022/05/18 03:03:00;;;;;;;23.18;12.55;;;;;;;9.23;54.97;100403.73;1766742;80;20983;-78
2022/05/18 03:05:27;;;;;;;18.40;11.15;;;;;;;9.24;55.08;100398.68;1763700;80;20943;-79
2022/05/18 03:07:58;;;;;;;17.52;9.13;;;;;;;9.27;55.14;100401.38;1753824;80;21022;-81
2022/05/18 03:10:25;;;;;;;16.00;10.53;;;;;;;9.30;55.21;100395.55;1747036;80;21124;-79
2022/05/18 03:12:52;;;;;;;14.65;9.70;;;;;;;9.28;55.16;100401.14;1764648;80;21061;-78
2022/05/18 03:15:20;;;;;;;18.70;9.98;;;;;;;9.28;55.50;100403.80;1765241;80;21062;-81
2022/05/18 03:17:46;;;;;;;18.17;10.05;;;;;;;9.29;55.64;100400.61;1762600;80;21553;-79
2022/05/18 03:25:47;;;;;;;17.67;9.83;;;;;;;9.26;55.66;100414.44;1748946;80;20987;-77
2022/05/18 03:28:14;;;;;;;16.70;8.93;;;;;;;9.27;55.62;100418.70;1765693;80;21046;-78
2022/05/18 03:30:41;;;;;;;18.70;8.53;;;;;;;9.29;55.55;100420.06;1763786;80;21529;-78
2022/05/18 03:33:08;;;;;;;15.55;6.97;;;;;;;9.30;55.63;100438.19;1735445;81;21053;-79
2022/05/18 03:35:36;;;;;;;14.28;7.33;;;;;;;9.29;55.53;100425.39;1759914;80;20978;-78
2022/05/18 03:38:05;;;;;;;13.68;6.90;;;;;;;9.31;55.64;100422.46;1756924;81;21078;-79
2022/05/18 03:40:36;;;;;;;15.90;7.45;;;;;;;9.31;55.88;100423.30;1751651;80;20939;-79
2022/05/18 03:43:06;;;;;;;14.60;7.08;;;;;;;9.30;55.74;100434.19;1764349;80;20987;-81
2022/05/18 03:45:36;;;;;;;15.40;6.42;;;;;;;9.28;55.76;100430.45;1765093;80;21168;-79
2022/05/18 03:48:09;;;;;;;12.18;6.75;;;;;;;9.25;55.98;100433.63;1707860;82;21147;-79
2022/05/18 03:50:39;;;;;;;11.18;6.25;;;;;;;9.24;56.22;100439.19;1708752;82;21043;-80
2022/05/18 03:53:07;;;;;;;10.95;6.30;;;;;;;9.21;56.65;100427.69;1696575;82;21038;-77
2022/05/18 03:55:36;;;;;;;15.20;7.53;;;;;;;9.18;56.66;100433.02;1703709;82;21126;-84
2022/05/18 03:58:03;;;;;;;14.18;7.80;;;;;;;9.19;56.77;100442.61;1719600;82;21051;-78
2022/05/18 04:00:32;;;;;;;13.43;7.58;;;;;;;9.22;56.88;100439.98;1721718;81;21536;-79
2022/05/18 04:02:59;;;;;;;15.10;8.10;;;;;;;9.27;57.11;100446.15;1713540;82;21010;-81
2022/05/18 04:05:26;;;;;;;14.95;7.78;;;;;;;9.33;57.15;100448.34;1728668;82;21013;-81
2022/05/18 04:07:53;;;;;;;15.25;8.28;;;;;;;9.41;57.12;100442.58;1751260;80;21011;-79
2022/05/18 04:10:20;;;;;;;12.63;6.95;;;;;;;9.45;57.16;100450.34;1764572;80;21002;-79
2022/05/18 04:12:47;;;;;;;14.63;6.37;;;;;;;9.47;57.15;100452.22;1750833;80;21139;-80
2022/05/18 04:15:16;;;;;;;13.80;6.53;;;;;;;9.49;57.03;100450.64;1768531;80;20993;-80
2022/05/18 04:17:44;;;;;;;12.05;6.45;;;;;;;9.56;57.24;100444.05;1748147;81;20927;-79
2022/05/18 04:20:14;;;;;;;12.40;6.40;;;;;;;9.62;57.03;100451.03;1765992;80;21081;-78
2022/05/18 04:22:40;;;;;;;13.25;7.08;;;;;;;9.68;56.93;100454.56;1765147;80;21595;-77
2022/05/18 04:25:10;;;;;;;10.98;6.40;;;;;;;9.73;56.92;100462.59;1757964;80;21121;-78
2022/05/18 04:27:38;;;;;;;15.98;6.70;;;;;;;9.77;57.02;100457.05;1757849;80;21021;-77
2022/05/18 04:30:07;;;;;;;10.55;6.42;;;;;;;9.79;57.15;100451.45;1766019;80;21065;-78
2022/05/18 04:32:38;;;;;;;13.85;6.80;;;;;;;9.81;57.14;100458.67;1762223;80;21104;-78
2022/05/18 04:35:08;;;;;;;14.33;7.10;;;;;;;9.84;57.28;100447.50;1766768;80;21447;-79
2022/05/18 04:37:38;;;;;;;12.30;7.08;;;;;;;9.89;57.23;100454.19;1756365;81;21081;-78
2022/05/18 04:40:07;;;;;;;10.55;6.72;;;;;;;9.94;57.12;100455.58;1764622;80;21453;-79
2022/05/18 04:42:35;;;;;;;11.73;6.97;;;;;;;9.94;57.04;100458.78;1762951;80;21603;-81
2022/05/18 04:45:03;;;;;;;12.93;7.83;;;;;;;9.94;57.11;100455.58;1765381;80;21030;-78
2022/05/18 04:47:30;;;;;;;13.65;7.83;;;;;;;9.96;57.13;100459.31;1761415;80;20998;-79
2022/05/18 04:49:57;;;;;;;10.25;6.80;;;;;;;9.98;57.15;100462.55;1760525;80;21214;-79
2022/05/18 04:52:26;;;;;;;11.50;6.83;;;;;;;10.00;57.13;100453.73;1747530;80;20987;-79
2022/05/18 04:54:53;;;;;;;10.28;6.50;;;;;;;10.08;57.26;100455.95;1755273;80;20990;-81
2022/05/18 04:57:20;;;;;;;9.30;5.50;;;;;;;10.22;57.36;100457.64;1765128;80;21478;-79
2022/05/18 04:59:50;;;;;;;10.48;6.28;;;;;;;10.34;56.90;100448.95;1754895;80;21505;-80
2022/05/18 05:02:17;;;;;;;10.93;5.60;;;;;;;10.38;56.59;100467.92;1767037;80;21199;-77
2022/05/18 05:04:44;;;;;;;10.88;5.75;;;;;;;10.37;56.45;100463.12;1765767;80;21029;-76
2022/05/18 05:07:13;;;;;;;9.15;5.25;;;;;;;10.39;56.64;100456.97;1762134;80;20946;-79
2022/05/18 05:09:40;;;;;;;7.45;4.95;;;;;;;10.43;56.61;100477.28;1762804;80;21046;-78
2022/05/18 05:12:08;;;;;;;9.08;5.20;;;;;;;10.48;56.37;100458.10;1751072;80;21559;-82
2022/05/18 05:14:38;;;;;;;9.13;4.95;;;;;;;10.61;56.42;100460.05;1763572;80;21532;-77
2022/05/18 05:17:05;;;;;;;9.98;4.40;;;;;;;10.78;56.53;100463.33;1760772;80;21085;-81
2022/05/18 05:19:35;;;;;;;8.45;4.50;;;;;;;10.94;56.10;100460.99;1765954;81;20982;-79
2022/05/18 05:22:03;;;;;;;9.40;4.67;;;;;;;11.02;55.48;100463.17;1752884;80;20963;-79
2022/05/18 05:24:31;;;;;;;9.75;4.53;;;;;;;11.04;55.23;100482.95;1710552;82;21186;-79
2022/05/18 05:26:59;;;;;;;6.97;3.90;;;;;;;10.98;55.15;100466.08;1705906;83;22247;-77
2022/05/18 05:29:28;;;;;;;8.88;4.20;;;;;;;10.92;55.31;100477.01;1756355;80;20983;-78
2022/05/18 05:31:55;;;;;;;8.43;4.45;;;;;;;10.84;55.40;100480.19;1754401;80;21054;-79
2022/05/18 05:34:23;;;;;;;7.92;4.10;;;;;;;10.71;55.53;100476.12;1740620;82;20962;-79
2022/05/18 05:36:51;;;;;;;7.92;4.50;;;;;;;10.66;55.91;100486.27;1746012;80;21098;-78
2022/05/18 05:39:20;;;;;;;9.03;4.28;;;;;;;10.61;56.00;100492.09;1766122;80;21219;-78
2022/05/18 05:41:50;;;;;;;8.75;4.30;;;;;;;10.54;56.25;100490.98;1764715;80;20994;-79
2022/05/18 05:44:19;;;;;;;7.40;4.47;;;;;;;10.45;56.34;100502.67;1764973;80;21025;-82
2022/05/18 05:46:47;;;;;;;9.73;4.75;;;;;;;10.36;56.51;100500.20;1766032;80;21008;-79
2022/05/18 05:49:14;;;;;;;8.08;4.75;;;;;;;10.27;56.84;100495.09;1749394;80;20961;-85
2022/05/18 05:51:44;;;;;;;9.60;4.58;;;;;;;10.23;57.02;100501.95;1731917;80;21497;-83
2022/05/18 05:54:11;;;;;;;8.53;5.30;;;;;;;10.24;57.02;100491.56;1763888;80;20963;-81
2022/05/18 05:56:38;;;;;;;11.60;5.80;;;;;;;10.25;57.30;100505.97;1762978;80;21042;-82
2022/05/18 05:59:05;;;;;;;6.95;4.75;;;;;;;10.26;57.33;100507.61;1768420;80;21089;-87
2022/05/18 06:01:34;;;;;;;9.88;4.90;;;;;;;10.36;57.16;100496.20;1766640;80;21085;-86
2022/05/18 06:04:03;;;;;;;8.10;4.53;;;;;;;10.43;56.84;100508.82;1761735;80;21096;-83
2022/05/18 06:06:34;;;;;;;8.35;4.75;;;;;;;10.52;56.68;100507.79;1758060;80;21022;-87
2022/05/18 06:09:03;;;;;;;7.97;4.47;;;;;;;10.63;56.62;100502.80;1758849;81;21058;-82
2022/05/18 06:11:30;;;;;;;6.85;4.42;;;;;;;10.72;56.40;100502.56;1763088;80;20959;-78
2022/05/18 06:13:57;;;;;;;8.70;4.92;;;;;;;10.77;56.01;100503.94;1764452;80;21521;-79
2022/05/18 06:16:27;;;;;;;8.65;4.90;;;;;;;10.82;55.96;100507.16;1766366;80;21861;-76
2022/05/18 06:18:53;;;;;;;7.20;4.58;;;;;;;10.79;56.17;100503.16;1764618;80;21026;-79
2022/05/18 06:21:23;;;;;;;7.20;4.28;;;;;;;10.79;55.89;100511.17;1764865;80;20993;-79
2022/05/18 06:23:51;;;;;;;7.08;4.28;;;;;;;10.78;55.75;100508.74;1755339;80;20994;-79
2022/05/18 06:26:17;;;;;;;6.85;4.17;;;;;;;10.74;55.82;100515.67;1761216;80;21108;-78
2022/05/18 06:28:45;;;;;;;6.25;3.85;;;;;;;10.67;56.17;100518.58;1760325;81;21801;-78
2022/05/18 06:31:12;;;;;;;8.10;4.20;;;;;;;10.64;56.18;100528.97;1766177;80;20994;-77
2022/05/18 06:33:40;;;;;;;7.25;3.75;;;;;;;10.61;56.08;100526.81;1766153;80;21109;-78
2022/05/18 06:36:10;;;;;;;8.10;4.22;;;;;;;10.56;56.00;100525.73;1766597;80;21529;-77
2022/05/18 06:38:37;;;;;;;9.18;4.45;;;;;;;10.51;56.07;100525.69;1767306;80;21084;-78
2022/05/18 06:41:22;;;;;;;8.45;3.95;;;;;;;10.46;56.25;100528.84;1760232;80;21104;-78
2022/05/18 06:43:52;;;;;;;7.30;4.00;;;;;;;10.43;56.33;100535.52;1765759;80;20935;-77
2022/05/18 06:46:19;;;;;;;6.37;3.50;;;;;;;10.42;56.48;100534.42;1765669;80;21038;-77
2022/05/18 06:48:48;;;;;;;7.87;3.52;;;;;;;10.39;56.66;100534.41;1763287;80;21474;-78
2022/05/18 06:51:29;;;;;;;6.42;3.67;;;;;;;10.39;56.76;100542.41;1765874;80;21074;-75
2022/05/18 06:53:59;;;;;;;6.85;3.58;;;;;;;10.35;57.01;100537.31;1727952;81;21104;-78
2022/05/18 06:56:32;;;;;;;6.37;3.65;;;;;;;10.34;57.12;100545.06;1766674;80;21486;-77
2022/05/18 06:58:58;;;;;;;7.03;3.70;;;;;;;10.35;56.99;100545.33;1760008;80;21089;-78
2022/05/18 07:01:27;;;;;;;5.92;3.40;;;;;;;10.33;57.03;100542.09;1748597;80;21058;-82
2022/05/18 07:03:56;;;;;;;8.50;3.02;;;;;;;10.36;57.29;100551.47;1764135;80;21568;-81
2022/05/18 07:06:25;;;;;;;6.20;2.90;;;;;;;10.31;57.66;100559.72;1766085;80;21128;-77
2022/05/18 07:08:54;;;;;;;7.00;3.15;;;;;;;10.27;57.88;100569.30;1767119;80;21018;-78
2022/05/18 07:11:25;;;;;;;4.95;2.80;;;;;;;10.24;58.07;100560.44;1764776;80;21088;-79
2022/05/18 07:13:55;;;;;;;4.03;2.03;;;;;;;10.22;58.25;100577.22;1753925;80;21908;-80
2022/05/18 07:16:26;;;;;;;4.47;2.40;;;;;;;10.21;58.49;100573.48;1764691;80;20994;-78
2022/05/18 07:18:53;;;;;;;5.22;2.47;;;;;;;10.18;58.78;100564.65;1764259;80;21090;-78
2022/05/18 07:21:21;;;;;;;7.67;3.72;;;;;;;10.16;59.13;100576.09;1755776;80;21605;-78
2022/05/18 07:23:49;;;;;;;9.63;5.47;;;;;;;10.14;59.26;100566.22;1766074;80;20975;-78
2022/05/18 07:26:16;;;;;;;9.65;6.42;;;;;;;10.18;59.48;100557.44;1764503;80;21005;-78
2022/05/18 07:28:43;;;;;;;11.75;7.10;;;;;;;10.31;59.51;100562.92;1766543;80;20978;-82
2022/05/18 07:31:10;;;;;;;14.25;9.40;;;;;;;10.47;59.44;100569.99;1759510;80;21161;-76
2022/05/18 07:33:38;;;;;;;10.50;7.45;;;;;;;10.59;58.83;100560.98;1764470;80;21050;-73
2022/05/18 07:36:07;;;;;;;10.32;6.05;;;;;;;10.69;58.51;100559.71;1765403;80;21117;-70
2022/05/18 07:38:35;;;;;;;8.00;5.17;;;;;;;10.75;58.13;100562.69;1764112;80;20951;-72
2022/05/18 07:41:02;;;;;;;10.00;5.08;;;;;;;10.74;58.10;100568.57;1759713;80;20935;-72
2022/05/18 07:43:29;;;;;;;8.60;5.25;;;;;;;10.70;58.19;100573.36;1765768;80;21720;-69
2022/05/18 07:45:56;;;;;;;8.78;5.58;;;;;;;10.67;58.43;100575.20;1763778;80;21497;-72
2022/05/18 07:48:23;;;;;;;8.05;5.28;;;;;;;10.64;58.55;100582.39;1767072;80;21049;-72
2022/05/18 07:50:50;;;;;;;8.83;5.33;;;;;;;10.67;58.73;100591.23;1712884;82;21011;-72
2022/05/18 07:53:18;;;;;;;7.45;4.62;;;;;;;10.68;59.11;100586.16;1765180;80;21185;-72
2022/05/18 07:55:44;;;;;;;6.62;4.17;;;;;;;10.70;59.39;100592.06;1765510;80;21175;-72
2022/05/18 07:58:14;;;;;;;7.90;3.70;;;;;;;10.72;59.69;100598.73;1765239;80;20968;-71
2022/05/18 08:00:41;;;;;;;6.65;3.72;;;;;;;10.77;59.85;100597.98;1765726;80;21628;-71
2022/05/18 08:03:09;;;;;;;5.80;3.08;;;;;;;10.79;60.35;100596.67;1764198;80;21489;-72
2022/05/18 08:05:37;;;;;;;6.08;3.15;;;;;;;10.75;60.94;100594.75;1761323;80;20983;-73
2022/05/18 08:08:10;;;;;;;6.37;3.22;;;;;;;10.67;61.56;100593.91;1766112;80;21239;-71
2022/05/18 08:16:08;;;;;;;5.78;3.40;;;;;;;10.64;63.36;100607.77;1766119;80;21105;-71
2022/05/18 08:18:34;;;;;;;7.33;3.40;;;;;;;10.70;63.64;100592.06;1760850;80;21027;-71
2022/05/18 08:21:03;;;;;;;5.80;3.40;;;;;;;10.70;64.21;100598.73;1752858;80;21417;-70
2022/05/18 08:23:33;;;;;;;8.70;3.50;;;;;;;10.73;64.38;100602.23;1751201;80;20951;-70
2022/05/18 08:26:03;;;;;;;5.80;3.55;;;;;;;10.76;64.37;100603.06;1764067;80;21576;-69
2022/05/18 08:28:35;;;;;;;5.67;3.27;;;;;;;10.76;64.76;100602.52;1763380;80;21049;-72
2022/05/18 08:31:03;;;;;;;6.22;3.17;;;;;;;10.77;65.16;100606.00;1747820;80;20943;-71
2022/05/18 08:33:34;;;;;;;6.75;2.98;;;;;;;10.73;65.06;100606.24;1764126;80;21236;-71
2022/05/18 08:36:04;;;;;;;5.95;2.85;;;;;;;10.66;65.39;100605.12;1766596;80;20931;-71
2022/05/18 08:38:35;;;;;;;5.15;3.02;;;;;;;10.63;65.94;100604.80;1759075;80;20995;-70
2022/05/18 08:41:31;;;;;;;6.22;3.00;;;;;;;10.64;66.49;100604.56;1754229;79;20978;-70
2022/05/18 08:44:08;;;;;;;5.37;3.17;;;;;;;10.65;66.54;100609.38;1761914;80;21183;-72
2022/05/18 08:46:57;;;;;;;7.28;3.20;;;;;;;10.60;66.56;100614.16;1754666;80;21160;-72
2022/05/18 08:49:57;;;;;;;6.92;2.60;;;;;;;10.61;66.88;100607.75;1761615;81;20999;-71
2022/05/18 08:52:54;;;;;;;5.70;2.70;;;;;;;10.64;67.20;100601.89;1761416;80;20978;-71
2022/05/18 08:55:50;;;;;;;6.72;3.27;;;;;;;10.66;67.40;100605.12;1765075;80;21549;-71
2022/05/18 08:58:43;;;;;;;4.45;2.67;;;;;;;10.67;67.53;100601.92;1759487;79;21038;-70
2022/05/18 09:01:21;;;;;;;5.83;2.85;;;;;;;10.73;67.97;100603.57;1713048;82;21224;-70
2022/05/18 09:04:12;;;;;;;4.45;2.70;;;;;;;10.80;67.95;100610.83;1713423;82;21078;-69
2022/05/18 09:06:52;;;;;;;5.08;3.10;;;;;;;10.85;67.84;100602.83;1713039;82;21081;-70
2022/05/18 09:12:36;;;;;;;6.22;2.90;;;;;;;10.85;67.84;100604.70;1707100;82;21035;-71
2022/05/18 09:15:07;;;;;;;7.10;3.52;;;;;;;10.84;67.83;100609.25;1711804;82;21230;-71
2022/05/18 09:18:04;;;;;;;6.85;3.92;;;;;;;10.82;67.86;100603.34;1716167;82;21075;-71
2022/05/18 09:21:09;;;;;;;7.35;3.98;;;;;;;10.77;68.34;100599.31;1717420;81;21060;-71
2022/05/18 09:23:53;;;;;;;5.28;3.27;;;;;;;10.76;68.91;100608.41;1714495;82;21051;-71
2022/05/18 09:26:42;;;;;;;5.15;3.52;;;;;;;10.77;69.19;100613.48;1705992;82;21063;-70
2022/05/18 09:29:38;;;;;;;6.15;3.58;;;;;;;10.76;69.54;100613.21;1716644;82;21348;-70
2022/05/18 09:32:32;;;;;;;4.72;3.00;;;;;;;10.79;69.83;100611.88;1711097;82;20949;-70
2022/05/18 09:35:26;;;;;;;5.95;3.05;;;;;;;10.82;69.98;100610.02;1715993;82;21067;-71
2022/05/18 09:38:05;;;;;;;4.87;3.10;;;;;;;10.85;70.03;100618.06;1715854;82;21193;-69
2022/05/18 09:40:39;;;;;;;6.40;3.45;;;;;;;10.85;70.17;100610.84;1715443;82;20940;-71
2022/05/18 09:43:26;;;;;;;6.37;3.77;;;;;;;10.84;70.35;100609.25;1714542;82;23201;-71
2022/05/18 09:45:53;;;;;;;5.85;3.72;;;;;;;10.83;70.55;100605.51;1715145;82;21039;-70
2022/05/18 09:48:44;;;;;;;6.35;3.72;;;;;;;10.81;71.02;100613.77;1715878;82;21040;-72
2022/05/18 09:51:11;;;;;;;7.30;4.33;;;;;;;10.79;71.39;100606.02;1689218;83;21042;-72
2022/05/18 09:53:38;;;;;;;7.67;5.40;;;;;;;10.74;71.84;100607.84;1713552;82;21446;-73
2022/05/18 09:56:13;;;;;;;8.45;6.17;;;;;;;10.73;72.45;100618.27;1713756;82;21458;-72
2022/05/18 09:58:43;;;;;;;9.30;6.35;;;;;;;10.72;73.03;100606.75;1714557;82;21040;-73
2022/05/18 10:09:47;;;;;;;8.70;4.90;;;;;;;10.67;74.71;100629.97;1715467;82;21444;-72
2022/05/18 10:12:27;;;;;;;7.80;4.42;;;;;;;10.70;74.89;100628.13;1715751;82;20996;-73
2022/05/18 10:15:02;;;;;;;5.28;3.50;;;;;;;10.75;75.05;100625.47;1714646;82;21066;-73
2022/05/18 10:17:32;;;;;;;5.00;2.98;;;;;;;10.78;74.92;100623.09;1712422;82;21479;-72
2022/05/18 10:20:11;;;;;;;3.98;2.77;;;;;;;10.83;74.45;100628.22;1708425;82;21007;-73
2022/05/18 10:22:41;;;;;;;4.78;2.90;;;;;;;10.90;74.42;100628.80;1695832;83;21103;-72
2022/05/18 10:25:26;;;;;;;3.58;2.27;;;;;;;11.00;74.38;100630.20;1713828;82;20983;-74
2022/05/18 10:27:58;;;;;;;4.42;2.62;;;;;;;11.10;73.88;100636.14;1714899;82;21010;-71
2022/05/18 10:30:30;;;;;;;4.20;2.62;;;;;;;11.17;73.22;100640.19;1714343;82;21086;-71
2022/05/18 10:33:23;;;;;;;3.58;2.50;;;;;;;11.21;72.23;100635.12;1705490;82;20988;-71
2022/05/18 10:35:53;;;;;;;4.37;2.33;;;;;;;11.23;71.60;100636.48;1715038;82;22349;-71
2022/05/18 10:38:28;;;;;;;3.77;2.30;;;;;;;11.27;71.64;100638.11;1715355;82;21089;-72
2022/05/18 10:41:13;;;;;;;3.47;2.40;;;;;;;11.29;71.64;100648.02;1706041;82;21577;-72
2022/05/18 10:44:08;;;;;;;3.90;2.35;;;;;;;11.34;71.82;100651.24;1723650;81;21003;-72
2022/05/18 10:46:46;;;;;;;3.70;2.60;;;;;;;11.39;71.61;100664.11;1725864;81;21006;-72
2022/05/18 10:49:35;;;;;;;5.58;2.80;;;;;;;11.38;71.15;100660.34;1726609;81;20980;-72
2022/05/18 10:52:34;;;;;;;4.30;3.20;;;;;;;11.39;71.07;100662.78;1725884;81;20979;-72
2022/05/18 10:55:14;;;;;;;3.70;2.80;;;;;;;11.37;71.23;100665.44;1724735;81;20955;-71
2022/05/18 10:57:55;;;;;;;4.87;3.10;;;;;;;11.32;71.40;100670.23;1700406;81;21748;-73
2022/05/18 11:00:22;;;;;;;4.72;3.45;;;;;;;11.29;71.73;100672.09;1726386;81;21089;-71
2022/05/18 11:03:16;;;;;;;4.40;3.40;;;;;;;11.22;71.87;100674.98;1724083;81;21509;-71
2022/05/18 11:05:56;;;;;;;5.80;3.80;;;;;;;11.16;72.50;100675.22;1725725;81;20955;-71
2022/05/18 11:08:27;;;;;;;4.25;3.55;;;;;;;11.13;72.95;100679.73;1723892;81;21011;-72
2022/05/18 11:11:14;;;;;;;4.80;3.52;;;;;;;11.11;73.17;100687.20;1725747;81;21074;-71
2022/05/18 11:13:50;;;;;;;4.25;3.42;;;;;;;11.10;73.51;100685.59;1720090;81;20991;-72
2022/05/18 11:17:01;;;;;;;5.00;3.95;;;;;;;11.08;73.88;100696.52;1722045;81;21105;-72
2022/05/18 11:20:09;;;;;;;5.15;3.67;;;;;;;11.07;74.18;100693.59;1714159;82;20997;-72
2022/05/18 11:23:04;;;;;;;5.60;4.42;;;;;;;11.09;74.60;100691.98;1762343;80;21560;-73
2022/05/18 11:26:04;;;;;;;5.97;4.10;;;;;;;11.09;74.76;100695.48;1746115;80;21012;-73
2022/05/18 11:29:06;;;;;;;5.72;4.17;;;;;;;11.12;74.83;100703.50;1756671;80;21506;-71
2022/05/18 11:32:17;;;;;;;6.00;4.30;;;;;;;11.24;74.75;100702.25;1764265;80;21473;-72
2022/05/18 11:35:27;;;;;;;5.87;4.37;;;;;;;11.41;74.20;100698.61;1759081;80;20931;-72
2022/05/18 11:38:20;;;;;;;6.08;4.33;;;;;;;11.56;73.51;100697.91;1755573;81;26639;-72
2022/05/18 11:41:25;;;;;;;4.80;3.98;;;;;;;11.65;72.29;100705.72;1737797;82;21600;-72
2022/05/18 11:44:22;;;;;;;5.25;4.22;;;;;;;11.70;71.33;100711.08;1748931;81;21034;-72
2022/05/18 11:47:20;;;;;;;5.45;4.28;;;;;;;11.73;70.93;100708.68;1690299;82;21538;-71
2022/05/18 11:50:13;;;;;;;5.05;3.98;;;;;;;11.83;71.07;100713.81;1736344;82;21036;-73
2022/05/18 11:53:20;;;;;;;6.37;4.53;;;;;;;12.01;70.63;100716.07;1729850;82;21012;-71
2022/05/18 11:55:59;;;;;;;6.97;5.92;;;;;;;12.14;69.88;100710.73;1722133;82;20958;-71
2022/05/18 11:59:10;;;;;;;7.10;6.03;;;;;;;12.24;69.01;100717.48;1763855;80;21003;-73
2022/05/18 12:01:46;;;;;;;6.85;5.03;;;;;;;12.32;68.51;100721.51;1755825;80;21111;-73
2022/05/18 12:04:33;;;;;;;5.30;4.12;;;;;;;12.41;67.48;100736.80;1691722;80;21600;-72
2022/05/18 12:08:00;;;;;;;6.40;4.20;;;;;;;12.46;66.22;100716.44;1749359;80;21394;-71
2022/05/18 12:10:44;;;;;;;5.05;4.08;;;;;;;12.48;65.96;100721.81;1752876;80;20995;-72
2022/05/18 12:13:30;;;;;;;5.12;4.20;;;;;;;12.53;66.06;100736.54;1760096;80;21000;-71
2022/05/18 12:16:12;;;;;;;4.83;3.92;;;;;;;12.50;66.00;100735.73;1764752;80;21708;-72
2022/05/18 12:18:59;;;;;;;5.87;4.58;;;;;;;12.40;66.23;100728.50;1760755;80;21119;-72